createdAt,value
2018-01-08T00:00:28.205Z,21.44
2018-01-08T00:02:54.213Z,21.43
2018-01-08T00:05:20.177Z,21.39
2018-01-08T00:07:46.173Z,21.33
2018-01-08T00:10:12.133Z,21.35
2018-01-08T00:12:38.139Z,21.36
2018-01-08T00:15:04.101Z,21.32
2018-01-08T00:17:30.054Z,21.38
2018-01-08T00:19:56.067Z,21.32
2018-01-08T00:22:22.026Z,21.29
2018-01-08T00:24:47.997Z,21.31
2018-01-08T00:27:13.958Z,21.32
2018-01-08T00:29:39.925Z,21.26
2018-01-08T00:32:05.973Z,21.34
2018-01-08T00:34:31.969Z,21.32
2018-01-08T00:36:57.932Z,21.28
2018-01-08T00:39:23.885Z,21.32
2018-01-08T00:41:49.850Z,21.42
2018-01-08T00:44:15.838Z,21.28
2018-01-08T00:46:41.858Z,21.35
2018-01-08T00:49:07.823Z,21.30
2018-01-08T00:51:33.798Z,21.31
2018-01-08T00:53:59.768Z,21.32
2018-01-08T00:56:25.732Z,21.23
2018-01-08T00:58:51.683Z,21.16
2018-01-08T01:01:17.672Z,21.22
2018-01-08T01:03:43.639Z,21.23
2018-01-08T01:06:09.650Z,21.18
2018-01-08T01:08:35.652Z,21.20
2018-01-08T01:11:01.638Z,21.29
2018-01-08T01:13:27.600Z,21.17
2018-01-08T01:15:53.590Z,21.24
2018-01-08T01:18:19.544Z,21.18
2018-01-08T01:20:45.509Z,21.22
2018-01-08T01:23:11.479Z,21.18
2018-01-08T01:25:37.455Z,21.10
2018-01-08T01:28:03.407Z,21.16
2018-01-08T01:30:29.352Z,21.12
2018-01-08T01:32:55.336Z,21.12
2018-01-08T01:35:21.310Z,21.07
2018-01-08T01:37:47.284Z,21.12
2018-01-08T01:40:13.241Z,21.11
2018-01-08T01:42:39.191Z,21.12
2018-01-08T01:45:05.227Z,21.07
2018-01-08T01:47:31.203Z,21.09
2018-01-08T01:49:57.239Z,21.19
2018-01-08T01:52:23.209Z,21.15
2018-01-08T01:54:49.220Z,21.06
2018-01-08T01:57:15.191Z,21.09
2018-01-08T01:59:41.172Z,21.13
2018-01-08T02:02:07.154Z,20.96
2018-01-08T02:04:33.109Z,21.04
2018-01-08T02:06:59.201Z,21.02
2018-01-08T02:09:25.210Z,20.97
2018-01-08T02:11:51.200Z,20.96
2018-01-08T02:14:17.191Z,21.03
2018-01-08T02:16:43.137Z,20.94
2018-01-08T02:19:09.110Z,20.98
2018-01-08T02:21:35.113Z,20.98
2018-01-08T02:24:01.083Z,20.94
2018-01-08T02:26:27.052Z,20.75
2018-01-08T02:28:53.040Z,20.78
2018-01-08T02:31:18.999Z,20.93
2018-01-08T02:33:44.984Z,20.89
2018-01-08T02:38:43.361Z,21.01
2018-01-08T02:41:09.331Z,21.04
2018-01-08T02:43:35.300Z,20.92
2018-01-08T02:46:01.264Z,21.03
2018-01-08T02:48:27.242Z,21.00
2018-01-08T02:50:53.207Z,21.00
2018-01-08T02:53:19.171Z,20.94
2018-01-08T02:55:45.162Z,20.97
2018-01-08T02:58:11.183Z,20.83
2018-01-08T03:00:37.154Z,20.82
2018-01-08T03:03:03.117Z,20.79
2018-01-08T03:05:29.071Z,20.72
2018-01-08T03:07:55.032Z,20.70
2018-01-08T03:10:20.988Z,20.69
2018-01-08T03:12:46.946Z,20.69
2018-01-08T03:15:12.902Z,20.63
2018-01-08T03:17:38.884Z,20.63
2018-01-08T03:20:04.848Z,20.64
2018-01-08T03:22:30.845Z,20.74
2018-01-08T03:24:56.793Z,20.88
2018-01-08T03:27:22.755Z,20.94
2018-01-08T03:29:48.721Z,20.87
2018-01-08T03:32:14.697Z,20.84
2018-01-08T03:34:41.544Z,20.83
2018-01-08T03:37:07.509Z,20.90
2018-01-08T03:39:33.479Z,20.83
2018-01-08T03:41:59.430Z,20.92
2018-01-08T03:44:25.382Z,20.87
2018-01-08T03:46:51.362Z,20.82
2018-01-08T03:49:17.302Z,20.83
2018-01-08T03:51:43.278Z,20.74
2018-01-08T03:54:09.240Z,20.93
2018-01-08T03:56:35.189Z,20.95
2018-01-08T03:59:01.160Z,21.03
2018-01-08T04:01:27.181Z,21.04
2018-01-08T04:03:53.142Z,21.07
2018-01-08T04:06:19.087Z,21.19
2018-01-08T04:08:45.052Z,21.15
2018-01-08T04:11:11.026Z,21.17
2018-01-08T04:13:36.986Z,21.23
2018-01-08T04:16:02.952Z,21.30
2018-01-08T04:18:28.922Z,21.31
2018-01-08T04:20:54.896Z,21.36
2018-01-08T04:23:20.880Z,21.32
2018-01-08T04:25:46.842Z,21.27
2018-01-08T04:28:12.815Z,21.31
2018-01-08T04:30:38.776Z,21.33
2018-01-08T04:33:04.728Z,21.29
2018-01-08T04:35:30.694Z,21.33
2018-01-08T04:37:56.662Z,21.36
2018-01-08T04:40:22.655Z,21.32
2018-01-08T04:42:48.622Z,21.44
2018-01-08T04:45:14.580Z,21.43
2018-01-08T04:47:40.529Z,21.43
2018-01-08T04:50:06.490Z,21.55
2018-01-08T04:52:32.461Z,21.38
2018-01-08T04:54:58.407Z,21.53
2018-01-08T04:57:24.385Z,21.39
2018-01-08T04:59:50.351Z,21.38
2018-01-08T05:02:17.376Z,21.46
2018-01-08T05:04:43.351Z,21.52
2018-01-08T05:07:09.343Z,21.59
2018-01-08T05:09:35.313Z,21.48
2018-01-08T05:12:01.289Z,21.39
2018-01-08T05:14:27.255Z,21.42
2018-01-08T05:16:53.233Z,21.44
2018-01-08T05:19:19.210Z,21.43
2018-01-08T05:21:45.194Z,21.44
2018-01-08T05:24:11.271Z,21.41
2018-01-08T05:26:37.254Z,21.45
2018-01-08T05:29:03.314Z,21.42
2018-01-08T05:31:30.307Z,21.40
2018-01-08T05:33:56.278Z,21.39
2018-01-08T05:36:22.256Z,21.45
2018-01-08T05:38:49.228Z,21.49
2018-01-08T05:41:15.207Z,21.33
2018-01-08T05:43:41.184Z,21.41
2018-01-08T05:46:07.395Z,21.43
2018-01-08T05:48:33.544Z,21.42
2018-01-08T05:50:59.548Z,21.56
2018-01-08T05:53:25.535Z,21.43
2018-01-08T05:55:51.522Z,21.47
2018-01-08T05:58:17.468Z,21.51
2018-01-08T06:00:43.445Z,21.43
2018-01-08T06:03:09.414Z,21.42
2018-01-08T06:05:35.374Z,21.34
2018-01-08T06:08:01.385Z,21.40
2018-01-08T06:10:27.360Z,21.42
2018-01-08T06:12:53.354Z,21.38
2018-01-08T06:15:19.321Z,21.39
2018-01-08T06:17:45.296Z,21.39
2018-01-08T06:20:11.263Z,21.35
2018-01-08T06:22:37.267Z,21.38
2018-01-08T06:25:03.234Z,21.34
2018-01-08T06:27:29.220Z,21.47
2018-01-08T06:29:55.170Z,21.44
2018-01-08T06:32:21.180Z,21.44
2018-01-08T06:34:47.178Z,21.36
2018-01-08T06:37:13.187Z,21.36
2018-01-08T06:39:39.146Z,21.37
2018-01-08T06:42:05.132Z,21.49
2018-01-08T06:44:31.133Z,21.55
2018-01-08T06:46:57.372Z,21.51
2018-01-08T06:49:23.388Z,21.51
2018-01-08T06:51:49.335Z,21.43
2018-01-08T06:54:20.672Z,21.47
2018-01-08T06:56:46.691Z,21.48
2018-01-08T06:59:12.655Z,21.45
2018-01-08T07:01:38.613Z,21.42
2018-01-08T07:04:04.597Z,21.46
2018-01-08T07:06:30.543Z,21.44
2018-01-08T07:08:56.886Z,21.43
2018-01-08T07:11:23.228Z,21.57
2018-01-08T07:13:49.222Z,21.50
2018-01-08T07:16:15.204Z,21.55
2018-01-08T07:18:41.158Z,21.59
2018-01-08T07:21:07.109Z,21.47
2018-01-08T07:23:33.109Z,21.45
2018-01-08T07:25:59.072Z,21.53
2018-01-08T07:28:25.054Z,21.55
2018-01-08T07:30:51.018Z,21.54
2018-01-08T07:33:16.992Z,21.53
2018-01-08T07:35:42.951Z,21.58
2018-01-08T07:38:08.909Z,21.45
2018-01-08T07:40:34.856Z,21.54
2018-01-08T07:43:00.815Z,21.60
2018-01-08T07:45:26.818Z,21.48
2018-01-08T07:47:53.838Z,21.43
2018-01-08T07:50:19.800Z,21.42
2018-01-08T07:52:45.758Z,21.58
2018-01-08T07:55:11.745Z,21.43
2018-01-08T07:57:37.713Z,21.36
2018-01-08T08:00:03.703Z,21.39
2018-01-08T08:02:29.671Z,21.47
2018-01-08T08:04:55.653Z,21.54
2018-01-08T08:07:21.624Z,21.58
2018-01-08T08:09:47.610Z,21.60
2018-01-08T08:12:13.596Z,21.52
2018-01-08T08:14:39.562Z,21.52
2018-01-08T08:17:05.566Z,21.53
2018-01-08T08:19:31.542Z,21.46
2018-01-08T08:21:57.522Z,21.61
2018-01-08T08:24:23.553Z,21.58
2018-01-08T08:26:49.540Z,21.61
2018-01-08T08:29:15.559Z,21.57
2018-01-08T08:31:41.530Z,21.55
2018-01-08T08:34:07.506Z,21.56
2018-01-08T08:36:33.489Z,21.53
2018-01-08T08:38:59.480Z,21.60
2018-01-08T08:41:25.509Z,21.60
2018-01-08T08:43:51.544Z,21.68
2018-01-08T08:46:17.509Z,21.54
2018-01-08T08:48:43.575Z,21.56
2018-01-08T08:51:11.148Z,21.67
2018-01-08T08:53:37.175Z,21.66
2018-01-08T08:56:03.187Z,21.54
2018-01-08T08:58:29.137Z,21.65
2018-01-08T09:00:55.102Z,21.59
2018-01-08T09:03:21.081Z,21.59
2018-01-08T09:05:47.050Z,21.71
2018-01-08T09:08:13.007Z,21.75
2018-01-08T09:10:39.010Z,21.65
2018-01-08T09:13:04.988Z,21.60
2018-01-08T09:15:30.998Z,21.61
2018-01-08T09:17:56.970Z,21.64
2018-01-08T09:20:22.960Z,21.56
2018-01-08T09:22:48.928Z,21.64
2018-01-08T09:25:14.900Z,21.57
2018-01-08T09:27:40.876Z,21.62
2018-01-08T09:30:06.846Z,21.57
2018-01-08T09:32:32.816Z,21.60
2018-01-08T09:34:58.795Z,21.60
2018-01-08T09:37:24.807Z,21.67
2018-01-08T09:39:50.923Z,21.66
2018-01-08T09:42:16.890Z,21.73
2018-01-08T09:44:42.879Z,21.73
2018-01-08T09:47:08.869Z,21.60
2018-01-08T09:49:34.888Z,21.56
2018-01-08T09:52:00.839Z,21.65
2018-01-08T09:54:26.817Z,21.74
2018-01-08T09:56:52.790Z,21.76
2018-01-08T09:59:18.746Z,21.67
2018-01-08T10:01:44.718Z,21.56
2018-01-08T10:04:10.678Z,21.68
2018-01-08T10:06:36.658Z,21.54
2018-01-08T10:09:02.625Z,21.58
2018-01-08T10:11:28.638Z,21.52
2018-01-08T10:13:54.607Z,21.56
2018-01-08T10:16:20.594Z,21.45
2018-01-08T10:18:46.583Z,21.55
2018-01-08T10:21:12.543Z,21.52
2018-01-08T10:23:38.564Z,21.49
2018-01-08T10:26:04.522Z,21.48
2018-01-08T10:28:30.509Z,21.39
2018-01-08T10:30:56.489Z,21.45
2018-01-08T10:33:22.567Z,21.55
2018-01-08T10:35:48.546Z,21.43
2018-01-08T10:38:14.525Z,21.46
2018-01-08T10:40:40.483Z,21.60
2018-01-08T10:43:06.466Z,21.52
2018-01-08T10:45:32.512Z,21.63
2018-01-08T10:47:58.514Z,21.67
2018-01-08T10:50:24.493Z,21.75
2018-01-08T10:52:50.470Z,21.67
2018-01-08T10:55:16.468Z,21.60
2018-01-08T10:57:42.473Z,21.68
2018-01-08T11:00:08.430Z,21.53
2018-01-08T11:02:34.417Z,21.54
2018-01-08T11:05:00.437Z,21.55
2018-01-08T11:07:26.403Z,21.50
2018-01-08T11:09:52.375Z,21.48
2018-01-08T11:12:18.338Z,21.51
2018-01-08T11:14:44.323Z,21.46
2018-01-08T11:17:10.297Z,21.48
2018-01-08T11:19:36.260Z,21.51
2018-01-08T11:22:02.235Z,21.61
2018-01-08T11:24:28.293Z,21.50
2018-01-08T11:26:54.310Z,21.53
2018-01-08T11:29:20.316Z,21.53
2018-01-08T11:31:46.291Z,21.61
2018-01-08T11:34:12.287Z,21.70
2018-01-08T11:36:38.274Z,21.67
2018-01-08T11:39:04.227Z,21.62
2018-01-08T11:41:30.185Z,21.72
2018-01-08T11:43:56.151Z,21.68
2018-01-08T11:46:22.130Z,21.69
2018-01-08T11:48:48.103Z,21.58
2018-01-08T11:51:14.105Z,21.56
2018-01-08T11:53:40.068Z,21.46
2018-01-08T11:56:06.045Z,21.56
2018-01-08T11:58:32.016Z,21.53
2018-01-08T12:00:57.983Z,21.61
2018-01-08T12:03:23.959Z,21.62
2018-01-08T12:05:49.983Z,21.58
2018-01-08T12:08:15.960Z,21.57
2018-01-08T12:10:41.946Z,21.64
2018-01-08T12:13:07.927Z,21.66
2018-01-08T12:15:33.954Z,21.63
2018-01-08T12:17:59.946Z,21.64
2018-01-08T12:20:25.921Z,21.70
2018-01-08T12:22:51.906Z,21.79
2018-01-08T12:25:17.878Z,21.85
2018-01-08T12:27:43.854Z,21.77
2018-01-08T12:30:09.819Z,21.80
2018-01-08T12:32:35.810Z,21.71
2018-01-08T12:35:01.776Z,21.73
2018-01-08T12:37:27.735Z,21.66
2018-01-08T12:39:53.729Z,21.61
2018-01-08T12:42:19.696Z,21.62
2018-01-08T12:44:45.737Z,21.59
2018-01-08T12:47:11.724Z,21.60
2018-01-08T12:49:37.670Z,21.68
2018-01-08T12:52:03.682Z,21.67
2018-01-08T12:54:29.630Z,21.65
2018-01-08T12:56:55.684Z,21.67
2018-01-08T12:59:21.628Z,21.69
2018-01-08T13:01:47.587Z,21.61
2018-01-08T13:04:13.551Z,21.64
2018-01-08T13:06:39.532Z,21.75
2018-01-08T13:09:05.491Z,21.80
2018-01-08T13:11:31.466Z,21.80
2018-01-08T13:13:57.425Z,21.78
2018-01-08T13:16:23.453Z,21.86
2018-01-08T13:18:49.436Z,21.76
2018-01-08T13:21:15.416Z,21.83
2018-01-08T13:23:41.390Z,21.77
2018-01-08T13:26:07.358Z,21.70
2018-01-08T13:28:34.783Z,21.70
2018-01-08T13:31:01.135Z,21.65
2018-01-08T13:35:59.506Z,21.76
2018-01-08T13:38:26.236Z,21.64
2018-01-08T13:40:52.547Z,21.68
2018-01-08T13:48:22.829Z,21.74
2018-01-08T13:50:48.837Z,21.76
2018-01-08T13:53:14.832Z,21.80
2018-01-08T13:55:40.789Z,21.83
2018-01-08T13:58:08.625Z,21.92
2018-01-08T14:00:36.711Z,21.93
2018-01-08T14:03:03.381Z,21.94
2018-01-08T14:05:29.411Z,21.90
2018-01-08T14:07:56.702Z,21.79
2018-01-08T14:10:22.742Z,21.71
2018-01-08T14:12:50.966Z,21.75
2018-01-08T14:15:17.078Z,21.73
2018-01-08T14:17:43.062Z,21.64
2018-01-08T14:20:09.738Z,21.67
2018-01-08T14:22:38.369Z,21.65
2018-01-08T14:25:04.415Z,21.68
2018-01-08T14:27:30.394Z,21.72
2018-01-08T14:29:56.361Z,21.73
2018-01-08T14:32:26.730Z,21.71
2018-01-08T14:34:53.556Z,21.90
2018-01-08T14:37:19.540Z,21.79
2018-01-08T14:39:45.518Z,21.74
2018-01-08T14:42:11.501Z,21.79
2018-01-08T14:44:37.489Z,21.79
2018-01-08T14:47:03.439Z,21.87
2018-01-08T14:49:29.431Z,21.98
2018-01-08T14:51:55.451Z,22.04
2018-01-08T14:54:21.464Z,21.96
2018-01-08T14:56:47.442Z,22.06
2018-01-08T14:59:13.415Z,21.94
2018-01-08T15:01:39.380Z,21.85
2018-01-08T15:04:05.363Z,21.83
2018-01-08T15:06:31.367Z,21.80
2018-01-08T15:08:57.383Z,21.83
2018-01-08T15:11:23.342Z,21.81
2018-01-08T15:13:49.308Z,21.85
2018-01-08T15:16:15.304Z,21.69
2018-01-08T15:18:41.272Z,21.75
2018-01-08T15:21:07.394Z,21.88
2018-01-08T15:23:33.394Z,21.76
2018-01-08T15:25:59.359Z,21.74
2018-01-08T15:28:25.352Z,21.75
2018-01-08T15:30:51.338Z,21.72
2018-01-08T15:33:17.327Z,21.89
2018-01-08T15:35:43.309Z,21.97
2018-01-08T15:38:09.260Z,21.94
2018-01-08T15:40:35.221Z,21.88
2018-01-08T15:43:01.185Z,21.96
2018-01-08T15:45:27.158Z,21.90
2018-01-08T15:47:53.114Z,21.93
2018-01-08T15:50:19.094Z,21.83
2018-01-08T15:52:45.061Z,21.65
2018-01-08T15:55:11.047Z,21.55
2018-01-08T15:57:37.413Z,21.40
2018-01-08T16:00:03.412Z,21.25
2018-01-08T16:02:29.376Z,21.58
2018-01-08T16:04:55.348Z,21.65
2018-01-08T16:07:21.357Z,21.62
2018-01-08T16:09:47.430Z,21.72
2018-01-08T16:12:13.397Z,21.67
2018-01-08T16:14:39.386Z,21.73
2018-01-08T16:17:05.344Z,21.73
2018-01-08T16:19:31.294Z,21.76
2018-01-08T16:21:57.270Z,21.70
2018-01-08T16:24:23.253Z,21.84
2018-01-08T16:26:49.275Z,21.93
2018-01-08T16:29:15.272Z,21.84
2018-01-08T16:31:41.318Z,21.82
2018-01-08T16:34:07.315Z,21.87
2018-01-08T16:36:33.323Z,21.87
2018-01-08T16:38:59.347Z,21.84
2018-01-08T16:41:25.407Z,21.81
2018-01-08T16:43:51.373Z,21.73
2018-01-08T16:46:17.335Z,21.68
2018-01-08T16:48:43.346Z,21.70
2018-01-08T16:51:09.307Z,21.78
2018-01-08T16:53:35.296Z,21.80
2018-01-08T16:56:01.261Z,21.76
2018-01-08T16:58:27.227Z,21.81
2018-01-08T17:00:53.196Z,21.73
2018-01-08T17:03:19.194Z,21.94
2018-01-08T17:05:45.233Z,21.82
2018-01-08T17:08:11.200Z,21.88
2018-01-08T17:10:38.251Z,21.83
2018-01-08T17:13:04.391Z,21.99
2018-01-08T17:15:30.377Z,22.01
2018-01-08T17:17:56.412Z,21.99
2018-01-08T17:20:22.377Z,21.94
2018-01-08T17:22:48.479Z,21.97
2018-01-08T17:25:14.469Z,21.92
2018-01-08T17:27:40.473Z,21.87
2018-01-08T17:30:06.456Z,21.80
2018-01-08T17:32:32.442Z,21.85
2018-01-08T17:34:58.438Z,21.82
2018-01-08T17:37:24.391Z,21.88
2018-01-08T17:39:50.405Z,21.88
2018-01-08T17:42:16.372Z,21.77
2018-01-08T17:44:42.352Z,21.79
2018-01-08T17:47:08.404Z,21.71
2018-01-08T17:49:34.408Z,21.78
2018-01-08T17:52:00.394Z,21.77
2018-01-08T17:54:26.365Z,21.85
2018-01-08T17:56:52.373Z,21.87
2018-01-08T17:59:18.345Z,21.84
2018-01-08T18:01:44.339Z,21.83
2018-01-08T18:04:10.343Z,21.86
2018-01-08T18:06:36.299Z,21.89
2018-01-08T18:09:02.330Z,21.92
2018-01-08T18:11:28.315Z,21.80
2018-01-08T18:13:54.714Z,21.79
2018-01-08T18:16:20.754Z,21.79
2018-01-08T18:18:46.733Z,21.83
2018-01-08T18:21:12.705Z,21.73
2018-01-08T18:23:38.718Z,21.73
2018-01-08T18:26:04.685Z,21.77
2018-01-08T18:28:30.659Z,21.78
2018-01-08T18:30:56.630Z,21.70
2018-01-08T18:33:22.625Z,21.75
2018-01-08T18:35:48.667Z,21.76
2018-01-08T18:38:14.602Z,21.77
2018-01-08T18:40:40.572Z,21.70
2018-01-08T18:43:06.536Z,21.65
2018-01-08T18:45:32.526Z,21.77
2018-01-08T18:47:58.483Z,21.84
2018-01-08T18:50:24.485Z,21.90
2018-01-08T18:52:50.462Z,21.84
2018-01-08T18:55:16.463Z,21.89
2018-01-08T18:57:42.432Z,21.89
2018-01-08T19:00:08.450Z,21.78
2018-01-08T19:02:34.438Z,21.82
2018-01-08T19:05:01.833Z,21.74
2018-01-08T19:07:28.762Z,21.72
2018-01-08T19:09:56.254Z,21.71
2018-01-08T19:12:23.449Z,21.72
2018-01-08T19:14:49.412Z,21.74
2018-01-08T19:17:16.815Z,21.74
2018-01-08T19:19:42.798Z,21.64
2018-01-08T19:22:08.769Z,21.68
2018-01-08T19:24:35.765Z,21.72
2018-01-08T19:27:02.343Z,21.65
2018-01-08T19:29:28.465Z,21.74
2018-01-08T19:31:54.427Z,21.69
2018-01-08T19:34:20.480Z,21.73
2018-01-08T19:36:46.461Z,21.84
2018-01-08T19:39:12.464Z,21.86
2018-01-08T19:41:42.274Z,21.84
2018-01-08T19:44:11.455Z,21.80
2018-01-08T19:46:38.249Z,21.87
2018-01-08T19:49:04.309Z,21.70
2018-01-08T19:51:30.262Z,21.74
2018-01-08T19:53:56.888Z,21.75
2018-01-08T19:56:22.873Z,21.68
2018-01-08T19:58:49.286Z,21.70
2018-01-08T20:01:16.511Z,21.78
2018-01-08T20:03:42.595Z,21.68
2018-01-08T20:06:08.743Z,21.72
2018-01-08T20:08:38.380Z,21.72
2018-01-08T20:11:04.542Z,21.79
2018-01-08T20:13:31.141Z,21.67
2018-01-08T20:15:57.626Z,21.69
2018-01-08T20:18:23.643Z,21.68
2018-01-08T20:20:49.625Z,21.80
2018-01-08T20:23:16.802Z,21.72
2018-01-08T20:25:45.139Z,21.85
2018-01-08T20:28:11.354Z,21.77
2018-01-08T20:30:39.920Z,21.76
2018-01-08T20:33:06.018Z,21.84
2018-01-08T20:35:33.325Z,21.66
2018-01-08T20:38:00.991Z,21.72
2018-01-08T20:40:27.997Z,21.73
2018-01-08T20:42:54.238Z,21.79
2018-01-08T20:45:20.834Z,21.80
2018-01-08T20:47:48.078Z,21.67
2018-01-08T20:50:14.644Z,21.72
2018-01-08T20:52:40.732Z,21.68
2018-01-08T20:55:07.234Z,21.65
2018-01-08T20:57:33.479Z,21.66
2018-01-08T20:59:59.659Z,21.66
2018-01-08T21:02:25.861Z,21.65
2018-01-08T21:04:53.554Z,21.60
2018-01-08T21:07:19.611Z,21.64
2018-01-08T21:09:45.732Z,21.65
2018-01-08T21:12:11.716Z,21.81
2018-01-08T21:14:37.682Z,21.87
2018-01-08T21:17:09.314Z,21.84
2018-01-08T21:19:35.307Z,21.73
2018-01-08T21:22:01.272Z,21.63
2018-01-08T21:24:27.270Z,21.74
2018-01-08T21:26:53.796Z,21.71
2018-01-08T21:29:20.110Z,21.68
2018-01-08T21:31:46.860Z,21.72
2018-01-08T21:34:13.143Z,21.67
2018-01-08T21:36:39.565Z,21.67
2018-01-08T21:39:06.230Z,21.75
2018-01-08T21:41:32.953Z,21.75
2018-01-08T21:43:59.265Z,21.80
2018-01-08T21:46:25.510Z,21.71
2018-01-08T21:48:55.035Z,21.86
2018-01-08T21:51:21.818Z,21.78
2018-01-08T21:53:55.134Z,21.91
2018-01-08T21:58:53.034Z,21.73
2018-01-08T22:01:19.115Z,21.82
2018-01-08T22:03:45.122Z,21.74
2018-01-08T22:06:11.335Z,21.81
2018-01-08T22:08:37.587Z,21.83
2018-01-08T22:11:03.556Z,21.68
2018-01-08T22:13:29.619Z,21.59
2018-01-08T22:15:55.909Z,21.61
2018-01-08T22:18:21.925Z,21.65
2018-01-08T22:20:47.898Z,21.58
2018-01-08T22:23:13.851Z,21.62
2018-01-08T22:25:39.853Z,21.56
2018-01-08T22:28:05.864Z,21.47
2018-01-08T22:30:31.837Z,21.49
2018-01-08T22:32:57.821Z,21.44
2018-01-08T22:42:58.441Z,21.45
2018-01-08T22:45:27.491Z,21.50
2018-01-08T22:47:53.461Z,21.53
2018-01-08T22:50:21.680Z,21.59
2018-01-08T22:52:47.722Z,21.57
2018-01-08T22:55:13.712Z,21.58
2018-01-08T22:57:39.806Z,21.51
2018-01-08T23:00:12.206Z,21.61
2018-01-08T23:02:38.191Z,21.34
2018-01-08T23:05:04.158Z,21.39
2018-01-08T23:07:30.147Z,21.46
2018-01-08T23:09:56.132Z,21.44
2018-01-08T23:12:22.131Z,21.36
2018-01-08T23:14:48.105Z,21.39
2018-01-08T23:19:45.196Z,21.40
2018-01-08T23:22:11.203Z,21.34
2018-01-08T23:24:37.165Z,21.38
2018-01-08T23:27:03.195Z,21.30
2018-01-08T23:32:01.283Z,21.27
2018-01-08T23:34:27.321Z,21.25
2018-01-08T23:36:53.323Z,21.27
2018-01-08T23:39:19.337Z,21.28
2018-01-08T23:41:45.311Z,21.36
2018-01-08T23:44:11.276Z,21.45
2018-01-08T23:46:37.257Z,21.50
2018-01-08T23:49:03.228Z,21.31
2018-01-08T23:51:29.242Z,21.37
2018-01-08T23:53:55.297Z,21.25
2018-01-08T23:56:21.277Z,21.27
2018-01-08T23:58:47.239Z,21.17
